Patsville, Arkansas
Current Conditions -  °F | °C
As of 3:53 AM on Saturday 25 Oct 2014 (Local Time) from KLLQ Reporting Station
Clear Clear  
Wind Chill: 58°   Ceiling: Unl
Heat Index: 58°   Visibility: 10mi
Dew Point: 54°   Wind: 6mph
Humidity: 87%   Direction: 260°W
Pressure: 30.1"   Gusts: NA
Location:  33.37°N, 92.1129°W
Report Text: KLLQ 250853Z AUTO 26005KT 10SM CLR 14/12 A3010 RMK AO2 SLP192 T01440122 58002
Loading
Personal Weather Stations






























Interactive Weather Map New forecast layout! Learn more

10-Day Weather Forecast

Advertisements
Track Severe Weather on mobile